AirNav   Air Wisconsin Up To $57,000 Bonus
 
 1002 users online  

DC07 MPD 5th Heliport
Washington, District of Columbia, USA

GOING TO WASHINGTON?


FAA INFORMATION EFFECTIVE 07 NOVEMBER 2019

Location

FAA Identifier: DC07
Lat/Long: 38-54-54.4010N 076-58-23.9100W
38-54.906683N 076-58.398500W
38.9151114,-76.9733083
(estimated)
Elevation: 383 ft. / 117 m (estimated)
Variation: 09W (1985)
Time zone: UTC -5 (UTC -4 during Daylight Saving Time)
Zip code: 20002

Heliport Operations

Heliport use: Private use. Permission required prior to landing
Activation date: 06/1975
Control tower: no
ARTCC: WASHINGTON CENTER
FSS: LEESBURG FLIGHT SERVICE STATION
Attendance: UNATNDD
Wind indicator: yes
Segmented circle: yes

Heliport Communications

WX AWOS-3 at CGS (5 nm NE): 121.225 (301-864-5497)
WX ASOS at DCA (5 nm SW): 132.65 (703-412-8140)
WX AWOS-3 at FME (14 nm NE): 123.925
WX AWOS-3PT at GAI (18 nm NW): 128.275 (301-977-2971)

Nearby radio navigation aids

VOR radial/distance  VOR name  Freq  Var
DCAr050/4.5WASHINGTON VOR/DME111.0009W
ADWr332/8.2ANDREWS VORTAC113.1010W
OTTr330/16.5NOTTINGHAM VORTAC113.7010W
BALr234/21.1BALTIMORE VORTAC115.1011W
AMLr101/23.1ARMEL VOR/DME113.5008W
EMIr188/34.8WESTMINSTER VORTAC117.9008W
FDKr156/(35.2)FREDERICK VOR109.0008W
BRVr036/39.0BROOKE VORTAC114.5009W

 
NDB name  Hdg/Dist  Freq  Var  ID
GEORGETOWN106/7.132309WGTN --. - -.
OXONN027/9.333211WDCA -.. -.-. .-
DAVEE032/16.522309WDAA -.. .- .-
ELLICOTT213/24.137111WFND ..-. -. -..

Heliport Services

Airframe service: NONE
Powerplant service: NONE

Runway Information

Helipad H1

Dimensions: 60 x 60 ft. / 18 x 18 m
Surface: concrete
Latitude: 38-54.906683N
Longitude: 076-58.398500W
Elevation: 383.0 ft.
Traffic pattern: leftleft
Obstructions: ant

Heliport Ownership and Management from official FAA records

Ownership: Publicly-owned
Owner: D. C. GOVERNMENT
1805 BLADENSBURG RD, NE
WASHINGTON, DC 20002
Phone 202-727-4490
Manager: VIVIAN ANDREWS/SPACE MGMT
300 INDIANA AVE, NW
WASHINGTON, DC 20001
Phone 202-727-4368

Additional Remarks

FOR CD CTC POTOMAC APCH AT 866-599-3874.

Instrument Procedures

There are no published instrument procedures at DC07.

Some nearby airports with instrument procedures:

KCGS - College Park Airport (5 nm NE)
KDCA - Ronald Reagan Washington National Airport (5 nm SW)
KADW - Joint Base Andrews (8 nm SE)
W00 - Freeway Airport (10 nm E)
KVKX - Potomac Airfield (10 nm S)
W32 - Washington Executive Airport/Hyde Field (10 nm S)
KFME - Tipton Airport (14 nm NE)
KDAA - Davison Army Airfield (15 nm SW)
KGAI - Montgomery County Airpark (18 nm NW)
KANP - Lee Airport (19 nm E)
 
Loc | Ops | Rwys | IFR | FBO | Links
Com | Nav | Svcs | Stats | Notes
Area around DC07 (MPD 5th Heliport)
 
Road maps at: MapQuest Bing Google
 
Aerial photo
No photo
 
Sectional chart

 
Airport distance calculator
Flying to MPD 5th Heliport? Find the distance to fly.

From to DC07

Sunrise and sunset
Times for 20-Nov-2019
 Local
(UTC-5)
 Zulu
(UTC)
Morning civil twilight06:2811:28
Sunrise06:5711:57
Sunset16:5021:50
Evening civil twilight17:1922:19

Current date and time
Zulu (UTC)  20-Nov-2019 12:55:50
Local (UTC-5)  20-Nov-2019 07:55:50
 
METAR
KCGS 
5nm NE 
201235Z AUTO 32003KT 10SM OVC070 08/00 A3000 RMK AO1 T00760002
KDCA 
5nm SW 
201152Z 32007KT 10SM OVC075 09/02 A2999 RMK AO2 SLP156 T00890022 10100 20078 53023
KADW 
8nm SE 
201156Z AUTO 00000KT 10SM OVC075 07/03 A2997 RMK AO2 SLP157 T00720025 10086 20060 52022 $
KFME 
14nm NE 
201233Z AUTO 00000KT 10SM OVC070 05/03 A3003 RMK AO1
KDAA 
15nm SW 
201156Z AUTO 31003KT 10SM OVC070 08/02 A2999 RMK AO2 SLP159 T00810019 10092 20069 52025 $
KGAI 
18nm NW 
201156Z AUTO 31006KT 9SM OVC060 07/02 A2999 RMK AO2 SLP171 T00670017 10078 20056 53021
TAF
KDCA 
5nm SW 
201141Z 2012/2118 32007KT P6SM OVC050 FM201500 32010G17KT P6SM BKN050 FM202200 32010KT P6SM FEW100 FM210600 32005KT P6SM FEW200 FM211200 VRB03KT P6SM FEW200
KADW 
8nm SE 
200900Z 2009/2115 32008KT 9999 SCT030 BKN050 620502 QNH2991INS BECMG 2013/2014 33010G20KT 9999 BKN030 BKN050 QNH3003INS TEMPO 2016/2019 33015G25KT BECMG 2021/2022 31008KT 9999 SCT020 SCT050 QNH3014INS TX12/2019Z TN03/2109Z
KDAA 
15nm SW 
201000Z 2010/2116 33006KT 9999 BKN050 BKN160 620504 QNH2993INS BECMG 2013/2014 33015G25KT 9999 BKN040 620402 QNH3003INS BECMG 2019/2020 33009KT 9999 SCT040 QNH3010INS TX12/2019Z TN04/2109Z
NOTAMs
Click for the latest NOTAMs
NOTAMs are issued by the DoD/FAA and will open in a separate window not controlled by AirNav.

 

 
 

Would you like to see your business listed on this page?

 If your business provides an interesting product or service to pilots, flight crews, aircraft, or users of the MPD 5th Heliport, you should consider listing it here.  To start the listing process, click on the button below
 
Add a business
 

Other Pages about MPD 5th Heliport

Update a link
 
Copyright © AirNav, LLC. All rights reserved. Privacy Policy  Contact